Time;durP1;ratioP1;P1;durP2;ratioP2;P2;SDS_P1;SDS_P2;PMS_P1;PMS_P2;Temp;Humidity;BMP_temperature;BMP_pressure;BME280_temperature;BME280_humidity;BME280_pressure;Samples;Min_cycle;Max_cycle;Signal;HPM_P1;HPM_P2
2022/12/13 00:01:23;;;;;;;11.30;5.20;;;;;;;;;;100273;1342;547925;-83
2022/12/13 00:03:51;;;;;;;12.60;5.10;;;;;;;;;;102644;1317;24247;-83
2022/12/13 00:06:17;;;;;;;10.70;3.90;;;;;;;;;;102472;1317;25210;-83
2022/12/13 00:08:43;;;;;;;11.10;4.10;;;;;;;;;;102604;1315;24232;-86
2022/12/13 00:11:10;;;;;;;10.80;4.10;;;;;;;;;;102415;1317;22577;-84
2022/12/13 00:13:37;;;;;;;8.90;3.20;;;;;;;;;;101099;1315;1440438;-82
2022/12/13 00:16:05;;;;;;;10.80;3.70;;;;;;;;;;103156;1307;25525;-84
2022/12/13 00:18:31;;;;;;;11.40;4.00;;;;;;;;;;103190;1304;22462;-84
2022/12/13 00:20:57;;;;;;;11.00;4.00;;;;;;;;;;103194;1309;22465;-83
2022/12/13 00:23:23;;;;;;;9.80;3.90;;;;;;;;;;103174;1312;26475;-80
2022/12/13 00:25:50;;;;;;;10.40;3.40;;;;;;;;;;103239;1308;25377;-84
2022/12/13 00:28:16;;;;;;;12.80;4.00;;;;;;;;;;103134;1309;22484;-83
2022/12/13 00:30:45;;;;;;;14.30;5.30;;;;;;;;;;103302;1307;24430;-79
2022/12/13 00:33:11;;;;;;;12.50;4.50;;;;;;;;;;103294;1308;22490;-82
2022/12/13 00:35:40;;;;;;;12.30;4.60;;;;;;;;;;103318;1310;22936;-82
2022/12/13 00:38:08;;;;;;;11.60;4.70;;;;;;;;;;103082;1313;22466;-82
2022/12/13 00:40:34;;;;;;;11.30;4.00;;;;;;;;;;103253;1302;25327;-84
2022/12/13 00:43:00;;;;;;;10.60;3.60;;;;;;;;;;103260;1307;22409;-82
2022/12/13 00:45:27;;;;;;;8.20;2.70;;;;;;;;;;103147;1307;22510;-83
2022/12/13 00:47:53;;;;;;;12.00;4.00;;;;;;;;;;103484;1307;24237;-83
2022/12/13 00:50:20;;;;;;;11.70;3.70;;;;;;;;;;103105;1310;22806;-83
2022/12/13 00:52:47;;;;;;;10.70;3.60;;;;;;;;;;103642;1304;25490;-83
2022/12/13 00:55:13;;;;;;;14.10;4.30;;;;;;;;;;103431;1304;25215;-82
2022/12/13 00:57:39;;;;;;;11.90;4.60;;;;;;;;;;103394;1304;24233;-84
2022/12/13 01:00:05;;;;;;;10.90;3.60;;;;;;;;;;103715;1304;25322;-85
2022/12/13 01:02:31;;;;;;;12.30;4.10;;;;;;;;;;103548;1306;22468;-84
2022/12/13 01:04:58;;;;;;;11.50;3.50;;;;;;;;;;103440;1306;23193;-81
2022/12/13 01:07:24;;;;;;;10.70;3.70;;;;;;;;;;103467;1306;25200;-84
2022/12/13 01:09:50;;;;;;;12.40;4.30;;;;;;;;;;103458;1306;22569;-85
2022/12/13 01:12:16;;;;;;;14.20;5.10;;;;;;;;;;103520;1304;22585;-83
2022/12/13 01:14:42;;;;;;;9.40;3.40;;;;;;;;;;103544;1304;26450;-83
2022/12/13 01:17:08;;;;;;;12.30;4.80;;;;;;;;;;103469;1307;25247;-82
2022/12/13 01:19:34;;;;;;;11.50;4.40;;;;;;;;;;103513;1304;25249;-84
2022/12/13 01:22:02;;;;;;;10.20;4.20;;;;;;;;;;103488;1306;22580;-82
2022/12/13 01:24:28;;;;;;;12.70;4.30;;;;;;;;;;103551;1306;25215;-83
2022/12/13 01:26:54;;;;;;;12.90;4.70;;;;;;;;;;103517;1306;24289;-82
2022/12/13 01:29:21;;;;;;;11.80;4.50;;;;;;;;;;103538;1306;22495;-82
2022/12/13 01:31:48;;;;;;;13.00;4.50;;;;;;;;;;103525;1304;22453;-88
2022/12/13 01:34:15;;;;;;;13.20;4.80;;;;;;;;;;103472;1304;22476;-84
2022/12/13 01:36:42;;;;;;;15.10;5.30;;;;;;;;;;103406;1305;22812;-84
2022/12/13 01:39:09;;;;;;;12.00;4.10;;;;;;;;;;103286;1304;22453;-83
2022/12/13 01:41:36;;;;;;;14.60;4.80;;;;;;;;;;103553;1307;23221;-82
2022/12/13 01:44:03;;;;;;;13.30;4.60;;;;;;;;;;103521;1306;25339;-84
2022/12/13 01:46:31;;;;;;;13.30;4.90;;;;;;;;;;103654;1304;22916;-83
2022/12/13 01:48:57;;;;;;;10.20;3.80;;;;;;;;;;103358;1306;22435;-83
2022/12/13 01:51:27;;;;;;;14.60;4.50;;;;;;;;;;103490;1306;24235;-84
2022/12/13 01:53:55;;;;;;;11.40;4.40;;;;;;;;;;103360;1307;25777;-81
2022/12/13 01:56:33;;;;;;;14.50;5.10;;;;;;;;;;103511;1307;22475;-83
2022/12/13 01:59:00;;;;;;;13.70;5.20;;;;;;;;;;103629;1304;22654;-83
2022/12/13 02:01:27;;;;;;;12.10;4.10;;;;;;;;;;103573;1304;24320;-82
2022/12/13 02:03:54;;;;;;;14.90;5.60;;;;;;;;;;103432;1306;22533;-85
2022/12/13 02:06:29;;;;;;;14.30;5.20;;;;;;;;;;103395;1306;24195;-83
2022/12/13 02:08:55;;;;;;;12.30;4.70;;;;;;;;;;103574;1306;26445;-86
2022/12/13 02:11:21;;;;;;;14.40;4.80;;;;;;;;;;103551;1306;25424;-83
2022/12/13 02:13:47;;;;;;;12.70;4.50;;;;;;;;;;103465;1298;24793;-83
2022/12/13 02:16:13;;;;;;;9.30;2.90;;;;;;;;;;103534;1304;24484;-86
2022/12/13 02:18:47;;;;;;;13.80;5.00;;;;;;;;;;103599;1304;25249;-81
2022/12/13 02:21:13;;;;;;;14.60;5.50;;;;;;;;;;103346;1304;24288;-84
2022/12/13 02:23:39;;;;;;;17.60;6.00;;;;;;;;;;103650;1305;25192;-84
2022/12/13 02:26:25;;;;;;;14.10;5.00;;;;;;;;;;103536;1280;24268;-84
2022/12/13 02:29:11;;;;;;;13.40;4.70;;;;;;;;;;103424;1306;22471;-89
2022/12/13 02:31:46;;;;;;;15.00;5.10;;;;;;;;;;103518;1306;24241;-82
2022/12/13 02:34:21;;;;;;;16.90;6.00;;;;;;;;;;103598;1307;24478;-85
2022/12/13 02:36:54;;;;;;;15.00;5.80;;;;;;;;;;103658;1302;22845;-86
2022/12/13 02:39:21;;;;;;;14.50;5.10;;;;;;;;;;103601;1301;23086;-84
2022/12/13 02:41:47;;;;;;;14.20;5.40;;;;;;;;;;103674;1304;22458;-82
2022/12/13 02:44:16;;;;;;;16.10;5.70;;;;;;;;;;103582;1305;22508;-85
2022/12/13 02:46:48;;;;;;;15.70;5.50;;;;;;;;;;103534;1307;23147;-85
2022/12/13 02:49:15;;;;;;;14.30;5.30;;;;;;;;;;103456;1306;24240;-86
2022/12/13 02:51:41;;;;;;;16.70;5.60;;;;;;;;;;103722;1306;22492;-86
2022/12/13 02:54:07;;;;;;;16.60;6.00;;;;;;;;;;103549;1296;24491;-82
2022/12/13 02:56:33;;;;;;;13.30;5.20;;;;;;;;;;103466;1304;24363;-86
2022/12/13 02:59:01;;;;;;;15.30;6.30;;;;;;;;;;103567;1307;23063;-82
2022/12/13 03:01:48;;;;;;;13.60;5.50;;;;;;;;;;103492;1304;22454;-83
2022/12/13 03:04:29;;;;;;;13.80;4.90;;;;;;;;;;103606;1304;24292;-85
2022/12/13 03:06:58;;;;;;;13.80;5.00;;;;;;;;;;103464;1303;26321;-86
2022/12/13 03:09:24;;;;;;;13.80;5.00;;;;;;;;;;103534;1306;22620;-86
2022/12/13 03:15:15;;;;;;;17.00;6.20;;;;;;;;;;103573;1305;22478;-87
2022/12/13 03:17:53;;;;;;;17.10;6.20;;;;;;;;;;107167;1300;22069;-80
2022/12/13 03:20:22;;;;;;;18.00;5.80;;;;;;;;;;107041;1307;22754;-80
2022/12/13 03:22:48;;;;;;;13.50;5.40;;;;;;;;;;106920;1307;22269;-80
2022/12/13 03:25:14;;;;;;;14.10;5.60;;;;;;;;;;106851;1309;22004;-80
2022/12/13 03:27:40;;;;;;;14.20;5.70;;;;;;;;;;106856;1309;23368;-80
2022/12/13 03:30:06;;;;;;;11.80;5.20;;;;;;;;;;106875;1310;21715;-80
2022/12/13 03:32:32;;;;;;;14.70;5.00;;;;;;;;;;106896;1310;22041;-80
2022/12/13 03:34:58;;;;;;;13.00;5.10;;;;;;;;;;106800;1309;22694;-80
2022/12/13 03:37:24;;;;;;;15.50;6.20;;;;;;;;;;106950;1309;22988;-81
2022/12/13 03:39:50;;;;;;;14.30;5.60;;;;;;;;;;106790;1308;22112;-80
2022/12/13 03:42:16;;;;;;;15.80;5.60;;;;;;;;;;106762;1309;22137;-80
2022/12/13 03:44:42;;;;;;;17.90;7.00;;;;;;;;;;106814;1304;22152;-81
2022/12/13 03:47:08;;;;;;;15.70;5.70;;;;;;;;;;107041;1305;22105;-80
2022/12/13 03:49:34;;;;;;;15.00;6.10;;;;;;;;;;107032;1308;22842;-81
2022/12/13 03:52:00;;;;;;;14.10;5.90;;;;;;;;;;107026;1298;22116;-81
2022/12/13 03:54:26;;;;;;;13.50;5.70;;;;;;;;;;106794;1302;22104;-80
2022/12/13 03:56:52;;;;;;;14.80;5.70;;;;;;;;;;106727;1309;22105;-80
2022/12/13 03:59:18;;;;;;;13.60;5.50;;;;;;;;;;106941;1308;22065;-80
2022/12/13 04:01:44;;;;;;;14.70;5.70;;;;;;;;;;106889;1306;22141;-80
2022/12/13 04:04:10;;;;;;;14.00;5.80;;;;;;;;;;106868;1307;22045;-80
2022/12/13 04:06:36;;;;;;;14.20;5.00;;;;;;;;;;106885;1307;22421;-81
2022/12/13 04:09:04;;;;;;;12.70;5.00;;;;;;;;;;106931;1307;22358;-83
2022/12/13 04:14:14;;;;;;;13.70;5.50;;;;;;;;;;106990;1306;22112;-80
2022/12/13 04:16:41;;;;;;;16.20;5.40;;;;;;;;;;106894;1307;22260;-81
2022/12/13 04:19:07;;;;;;;15.40;6.20;;;;;;;;;;107104;1307;22106;-80
2022/12/13 04:21:33;;;;;;;14.90;6.00;;;;;;;;;;106926;1307;22045;-80
2022/12/13 04:24:00;;;;;;;16.20;6.20;;;;;;;;;;106911;1307;22092;-81
2022/12/13 04:26:26;;;;;;;14.20;5.10;;;;;;;;;;106926;1307;22839;-80
2022/12/13 04:28:52;;;;;;;14.40;5.60;;;;;;;;;;106914;1306;22271;-80
2022/12/13 04:31:18;;;;;;;16.10;6.60;;;;;;;;;;106914;1307;22754;-80
2022/12/13 04:33:44;;;;;;;16.40;6.20;;;;;;;;;;106872;1307;22308;-80
2022/12/13 04:36:10;;;;;;;16.20;6.10;;;;;;;;;;106784;1310;22112;-81
2022/12/13 04:38:35;;;;;;;16.30;6.40;;;;;;;;;;106942;1306;22344;-81
2022/12/13 04:41:12;;;;;;;15.00;5.30;;;;;;;;;;106964;1306;22094;-81
2022/12/13 04:43:37;;;;;;;16.20;6.20;;;;;;;;;;106923;1307;22068;-81
2022/12/13 04:46:04;;;;;;;16.50;5.80;;;;;;;;;;106889;1307;22721;-81
2022/12/13 04:48:31;;;;;;;16.00;6.00;;;;;;;;;;107097;1307;22037;-81
2022/12/13 04:50:58;;;;;;;17.30;6.70;;;;;;;;;;106799;1307;22111;-80
2022/12/13 04:53:24;;;;;;;16.70;6.10;;;;;;;;;;106919;1307;22196;-80
2022/12/13 04:55:51;;;;;;;15.70;6.10;;;;;;;;;;106899;1307;22292;-80
2022/12/13 04:58:18;;;;;;;13.40;5.70;;;;;;;;;;106960;1307;22092;-80
2022/12/13 05:00:44;;;;;;;15.30;5.50;;;;;;;;;;106937;1306;22101;-81
2022/12/13 05:03:10;;;;;;;14.00;5.60;;;;;;;;;;106766;1307;22064;-81
2022/12/13 05:05:39;;;;;;;13.50;5.70;;;;;;;;;;106870;1302;21958;-81
2022/12/13 05:08:05;;;;;;;13.80;6.10;;;;;;;;;;106912;1307;22103;-81
2022/12/13 05:10:32;;;;;;;20.70;6.20;;;;;;;;;;106930;1307;22076;-80
2022/12/13 05:12:58;;;;;;;16.10;5.80;;;;;;;;;;106888;1307;22800;-80
2022/12/13 05:15:24;;;;;;;16.70;6.10;;;;;;;;;;106939;1307;22065;-81
2022/12/13 05:17:51;;;;;;;13.60;5.60;;;;;;;;;;106959;1306;22127;-81
2022/12/13 05:20:17;;;;;;;15.20;5.50;;;;;;;;;;107116;1300;22068;-80
2022/12/13 05:22:44;;;;;;;15.90;6.10;;;;;;;;;;106782;1302;21944;-80
2022/12/13 05:25:10;;;;;;;30.70;10.10;;;;;;;;;;106958;1307;22639;-81
2022/12/13 05:27:36;;;;;;;18.50;7.00;;;;;;;;;;107071;1305;22805;-80
2022/12/13 05:30:02;;;;;;;17.20;7.00;;;;;;;;;;106798;1307;22130;-81
2022/12/13 05:32:32;;;;;;;20.90;8.80;;;;;;;;;;106953;1306;22787;-80
2022/12/13 05:34:58;;;;;;;15.30;5.80;;;;;;;;;;106988;1306;22110;-80
2022/12/13 05:37:24;;;;;;;15.30;6.40;;;;;;;;;;106911;1292;22773;-80
2022/12/13 05:39:51;;;;;;;13.10;5.60;;;;;;;;;;106921;1305;22059;-80
2022/12/13 05:42:17;;;;;;;16.10;7.10;;;;;;;;;;106785;1307;22121;-81
2022/12/13 05:44:43;;;;;;;16.00;6.60;;;;;;;;;;106938;1307;22716;-81
2022/12/13 05:47:09;;;;;;;15.00;5.90;;;;;;;;;;106995;1304;22084;-80
2022/12/13 05:49:35;;;;;;;11.10;4.70;;;;;;;;;;106917;1306;22226;-80
2022/12/13 05:52:01;;;;;;;13.90;5.20;;;;;;;;;;106985;1299;22057;-80
2022/12/13 05:54:27;;;;;;;13.70;5.40;;;;;;;;;;106890;1306;21930;-80
2022/12/13 05:56:53;;;;;;;13.50;6.40;;;;;;;;;;106889;1307;23029;-81
2022/12/13 05:59:21;;;;;;;14.50;5.80;;;;;;;;;;106774;1307;22066;-80
2022/12/13 06:01:46;;;;;;;14.10;6.40;;;;;;;;;;106688;1307;22051;-80
2022/12/13 06:04:12;;;;;;;15.90;7.20;;;;;;;;;;106772;1307;22733;-81
2022/12/13 06:06:38;;;;;;;16.90;7.00;;;;;;;;;;106877;1302;22043;-80
2022/12/13 06:09:04;;;;;;;15.50;5.40;;;;;;;;;;106879;1307;23015;-80
2022/12/13 06:11:30;;;;;;;13.10;4.90;;;;;;;;;;106775;1307;21989;-80
2022/12/13 06:13:56;;;;;;;12.40;5.10;;;;;;;;;;106876;1302;22060;-80
2022/12/13 06:16:23;;;;;;;13.40;4.60;;;;;;;;;;106923;1305;22068;-79
2022/12/13 06:18:50;;;;;;;12.70;5.00;;;;;;;;;;106742;1307;22216;-80
2022/12/13 06:21:16;;;;;;;13.50;5.50;;;;;;;;;;106907;1307;22074;-80
2022/12/13 06:23:42;;;;;;;12.10;4.30;;;;;;;;;;106775;1307;22750;-80
2022/12/13 06:26:08;;;;;;;10.60;4.10;;;;;;;;;;106849;1307;22049;-80
2022/12/13 06:28:34;;;;;;;11.90;4.90;;;;;;;;;;106701;1307;22680;-79
2022/12/13 06:31:01;;;;;;;10.50;4.50;;;;;;;;;;106784;1307;22163;-80
2022/12/13 06:33:27;;;;;;;11.60;4.70;;;;;;;;;;106701;1307;22772;-80
2022/12/13 06:35:57;;;;;;;12.00;4.50;;;;;;;;;;106866;1307;22072;-80
2022/12/13 06:38:23;;;;;;;12.20;4.30;;;;;;;;;;106686;1307;21969;-80
2022/12/13 06:40:49;;;;;;;12.90;5.70;;;;;;;;;;106773;1307;21990;-80
2022/12/13 06:43:16;;;;;;;13.50;5.70;;;;;;;;;;106771;1307;22099;-80
2022/12/13 06:45:41;;;;;;;11.30;4.80;;;;;;;;;;106896;1307;21628;-80
2022/12/13 06:48:07;;;;;;;10.80;4.60;;;;;;;;;;106751;1307;22103;-80
2022/12/13 06:50:34;;;;;;;11.70;4.50;;;;;;;;;;106905;1307;22067;-80
2022/12/13 06:52:59;;;;;;;12.10;4.70;;;;;;;;;;106766;1300;22101;-81
2022/12/13 06:55:25;;;;;;;11.30;4.80;;;;;;;;;;106761;1307;22119;-80
2022/12/13 06:57:51;;;;;;;11.90;5.10;;;;;;;;;;106871;1307;22333;-81
2022/12/13 07:00:17;;;;;;;11.80;4.30;;;;;;;;;;106883;1307;22058;-80
2022/12/13 07:02:43;;;;;;;11.20;4.90;;;;;;;;;;106873;1291;22018;-80
2022/12/13 07:05:09;;;;;;;11.00;4.70;;;;;;;;;;106898;1307;22731;-80
2022/12/13 07:07:35;;;;;;;16.20;5.40;;;;;;;;;;106882;1307;22852;-80
2022/12/13 07:10:01;;;;;;;10.20;3.70;;;;;;;;;;106764;1300;22112;-81
2022/12/13 07:12:27;;;;;;;10.20;4.10;;;;;;;;;;106679;1307;22063;-81
2022/12/13 07:14:54;;;;;;;12.30;5.10;;;;;;;;;;106908;1307;22541;-80
2022/12/13 07:17:20;;;;;;;12.30;5.00;;;;;;;;;;107121;1298;22182;-81
2022/12/13 07:19:46;;;;;;;13.10;4.60;;;;;;;;;;106854;1307;22080;-82
2022/12/13 07:22:12;;;;;;;11.90;5.10;;;;;;;;;;106887;1307;22774;-79
2022/12/13 07:24:38;;;;;;;14.90;5.40;;;;;;;;;;106743;1307;21997;-80
2022/12/13 07:27:04;;;;;;;9.90;3.80;;;;;;;;;;106778;1307;22966;-79
2022/12/13 07:29:30;;;;;;;13.00;5.40;;;;;;;;;;106707;1307;22074;-80
2022/12/13 07:31:57;;;;;;;12.50;4.40;;;;;;;;;;106763;1307;21982;-78
2022/12/13 07:34:23;;;;;;;13.80;5.20;;;;;;;;;;106880;1307;22119;-79
2022/12/13 07:36:49;;;;;;;13.40;4.80;;;;;;;;;;106699;1307;22396;-80
2022/12/13 07:39:15;;;;;;;13.90;5.30;;;;;;;;;;106876;1299;22180;-80
2022/12/13 07:41:41;;;;;;;10.90;4.90;;;;;;;;;;106840;1307;22181;-80
2022/12/13 07:44:07;;;;;;;12.60;4.80;;;;;;;;;;106896;1307;22011;-81
2022/12/13 07:46:33;;;;;;;13.10;4.60;;;;;;;;;;106879;1306;22084;-79
2022/12/13 07:49:03;;;;;;;12.30;4.90;;;;;;;;;;106776;1300;22410;-79
2022/12/13 07:51:29;;;;;;;13.50;5.20;;;;;;;;;;106882;1307;22136;-80
2022/12/13 07:53:56;;;;;;;15.10;5.80;;;;;;;;;;106845;1302;22095;-79
2022/12/13 07:56:22;;;;;;;13.30;4.70;;;;;;;;;;106758;1307;22049;-79
2022/12/13 07:58:48;;;;;;;18.40;5.70;;;;;;;;;;106751;1307;22368;-80
2022/12/13 08:01:14;;;;;;;16.00;6.10;;;;;;;;;;106722;1307;22839;-79
2022/12/13 08:03:40;;;;;;;19.20;7.10;;;;;;;;;;106741;1307;22653;-79
2022/12/13 08:06:07;;;;;;;13.40;5.40;;;;;;;;;;106888;1300;22066;-79
2022/12/13 08:08:33;;;;;;;15.40;5.00;;;;;;;;;;107078;1300;21999;-79
2022/12/13 08:11:00;;;;;;;13.90;5.10;;;;;;;;;;106847;1306;22183;-78
2022/12/13 08:13:26;;;;;;;15.30;6.00;;;;;;;;;;106845;1307;22133;-78
2022/12/13 08:15:57;;;;;;;14.90;5.70;;;;;;;;;;106823;1307;22139;-78
2022/12/13 08:18:24;;;;;;;13.20;4.80;;;;;;;;;;106732;1307;22718;-78
2022/12/13 08:20:50;;;;;;;10.30;3.60;;;;;;;;;;106824;1302;22390;-78
2022/12/13 08:23:16;;;;;;;11.50;3.90;;;;;;;;;;106923;1307;22104;-78
2022/12/13 08:25:48;;;;;;;12.90;4.50;;;;;;;;;;106922;1307;22468;-78
2022/12/13 08:28:15;;;;;;;13.20;5.50;;;;;;;;;;106745;1302;22167;-78
2022/12/13 08:30:41;;;;;;;11.90;5.10;;;;;;;;;;106691;1307;22352;-78
2022/12/13 08:33:07;;;;;;;17.70;5.10;;;;;;;;;;106898;1306;22067;-78
2022/12/13 08:35:33;;;;;;;12.20;4.70;;;;;;;;;;106838;1307;22705;-79
2022/12/13 08:37:59;;;;;;;11.90;4.30;;;;;;;;;;106862;1294;22047;-80
2022/12/13 08:40:26;;;;;;;13.50;4.00;;;;;;;;;;106891;1307;22159;-78
2022/12/13 08:42:54;;;;;;;13.10;4.70;;;;;;;;;;106869;1307;22340;-78
2022/12/13 08:45:25;;;;;;;14.50;5.80;;;;;;;;;;106898;1307;22123;-78
2022/12/13 08:47:52;;;;;;;13.60;4.80;;;;;;;;;;106928;1307;22106;-78
2022/12/13 08:50:18;;;;;;;14.10;4.70;;;;;;;;;;106838;1307;22164;-78
2022/12/13 08:52:44;;;;;;;9.80;3.90;;;;;;;;;;106863;1307;22039;-78
2022/12/13 08:55:12;;;;;;;17.60;5.20;;;;;;;;;;106772;1308;22113;-77
2022/12/13 08:57:39;;;;;;;18.10;6.00;;;;;;;;;;106898;1307;22705;-77
2022/12/13 09:00:07;;;;;;;18.10;4.80;;;;;;;;;;106764;1310;22662;-77
2022/12/13 09:02:34;;;;;;;14.80;4.90;;;;;;;;;;106756;1310;22103;-78
2022/12/13 09:05:02;;;;;;;15.90;5.60;;;;;;;;;;106803;1307;21962;-78
2022/12/13 09:07:28;;;;;;;13.40;4.90;;;;;;;;;;106918;1307;22121;-78
2022/12/13 09:09:55;;;;;;;13.20;5.40;;;;;;;;;;106777;1307;22065;-78
2022/12/13 09:12:22;;;;;;;11.80;5.30;;;;;;;;;;106884;1307;22067;-77
2022/12/13 09:14:49;;;;;;;12.90;4.80;;;;;;;;;;106759;1302;22134;-78
2022/12/13 09:17:16;;;;;;;11.90;4.60;;;;;;;;;;106717;1307;22189;-77
2022/12/13 09:19:43;;;;;;;12.30;4.60;;;;;;;;;;106747;1300;22071;-78
2022/12/13 09:22:11;;;;;;;11.20;4.40;;;;;;;;;;106691;1302;22057;-78
2022/12/13 09:24:37;;;;;;;11.70;4.60;;;;;;;;;;106762;1307;22086;-78
2022/12/13 09:27:05;;;;;;;9.20;3.70;;;;;;;;;;106750;1307;22025;-77
2022/12/13 09:29:33;;;;;;;13.90;5.00;;;;;;;;;;106867;1307;22086;-77
2022/12/13 09:31:59;;;;;;;16.80;5.90;;;;;;;;;;106687;1307;21928;-78
2022/12/13 09:34:25;;;;;;;17.00;5.90;;;;;;;;;;106894;1307;22804;-77
2022/12/13 09:36:52;;;;;;;15.60;5.90;;;;;;;;;;106709;1307;21918;-77
2022/12/13 09:39:19;;;;;;;15.40;6.30;;;;;;;;;;107063;1294;22774;-77
2022/12/13 09:41:48;;;;;;;14.30;5.40;;;;;;;;;;106733;1308;22070;-77
2022/12/13 09:44:27;;;;;;;15.60;5.90;;;;;;;;;;106687;1309;22110;-77
2022/12/13 09:46:54;;;;;;;16.80;6.10;;;;;;;;;;106702;1307;22576;-78
2022/12/13 09:49:30;;;;;;;15.40;5.90;;;;;;;;;;106769;1307;22764;-77
2022/12/13 09:51:59;;;;;;;11.90;4.20;;;;;;;;;;106602;1307;22840;-77
2022/12/13 09:54:28;;;;;;;11.70;4.90;;;;;;;;;;106899;1307;21974;-77
2022/12/13 09:56:58;;;;;;;10.30;3.80;;;;;;;;;;106853;1310;22205;-78
2022/12/13 09:59:30;;;;;;;11.40;3.80;;;;;;;;;;106693;1310;21950;-77
2022/12/13 10:02:12;;;;;;;9.80;4.30;;;;;;;;;;106840;1302;22584;-77
2022/12/13 10:04:41;;;;;;;10.10;3.50;;;;;;;;;;106613;1310;22034;-77
2022/12/13 10:07:28;;;;;;;11.60;4.10;;;;;;;;;;106746;1304;22020;-77
2022/12/13 10:10:01;;;;;;;11.70;4.00;;;;;;;;;;106851;1302;22118;-77
2022/12/13 10:12:29;;;;;;;10.30;3.50;;;;;;;;;;106598;1310;22061;-79
2022/12/13 10:15:01;;;;;;;12.90;4.00;;;;;;;;;;106698;1310;22064;-79
2022/12/13 10:17:34;;;;;;;11.00;4.00;;;;;;;;;;106677;1310;22159;-78
2022/12/13 10:20:04;;;;;;;10.00;3.30;;;;;;;;;;106608;1308;22685;-78
2022/12/13 10:22:37;;;;;;;11.30;3.60;;;;;;;;;;106676;1303;21954;-78
2022/12/13 10:25:06;;;;;;;12.40;4.00;;;;;;;;;;106728;1295;22102;-78
2022/12/13 10:27:39;;;;;;;10.50;3.60;;;;;;;;;;106681;1305;22050;-78
2022/12/13 10:30:11;;;;;;;10.80;3.80;;;;;;;;;;106706;1310;22145;-78
2022/12/13 10:33:11;;;;;;;13.50;3.80;;;;;;;;;;106708;1306;22117;-78
2022/12/13 10:35:41;;;;;;;12.50;4.30;;;;;;;;;;106735;1309;22206;-77
2022/12/13 10:38:36;;;;;;;11.90;3.90;;;;;;;;;;106731;1310;22070;-76
2022/12/13 10:41:24;;;;;;;14.60;4.80;;;;;;;;;;106850;1308;22348;-75
2022/12/13 10:44:23;;;;;;;11.00;3.60;;;;;;;;;;106716;1304;22025;-76
2022/12/13 10:47:03;;;;;;;10.50;3.70;;;;;;;;;;106682;1310;22353;-76
2022/12/13 10:49:35;;;;;;;9.30;3.80;;;;;;;;;;106644;1305;22649;-76
2022/12/13 10:52:03;;;;;;;12.20;4.70;;;;;;;;;;106830;1308;22154;-76
2022/12/13 11:01:34;;;;;;;14.50;4.70;;;;;;;;;;100574;1336;545357;-79
2022/12/13 11:04:02;;;;;;;12.70;4.40;;;;;;;;;;102396;1322;22488;-78
2022/12/13 11:06:40;;;;;;;10.30;3.70;;;;;;;;;;102472;1319;25322;-79
2022/12/13 11:09:14;;;;;;;10.30;4.20;;;;;;;;;;102776;1305;24359;-85
2022/12/13 11:11:42;;;;;;;10.90;3.70;;;;;;;;;;102925;1313;22430;-83
2022/12/13 11:14:16;;;;;;;13.00;4.20;;;;;;;;;;101685;1316;1594683;-79
2022/12/13 11:16:48;;;;;;;10.20;3.20;;;;;;;;;;103518;1306;22506;-81
2022/12/13 11:19:18;;;;;;;9.10;3.30;;;;;;;;;;103713;1306;22482;-83
2022/12/13 11:21:47;;;;;;;8.90;3.40;;;;;;;;;;103569;1305;22452;-83
2022/12/13 11:24:19;;;;;;;23.10;9.10;;;;;;;;;;103653;1286;22618;-80
2022/12/13 11:26:47;;;;;;;68.10;20.00;;;;;;;;;;103827;1295;25329;-82
2022/12/13 11:29:13;;;;;;;174.40;42.80;;;;;;;;;;103571;1303;23837;-84
2022/12/13 11:31:43;;;;;;;147.80;37.80;;;;;;;;;;103638;1304;22965;-81
2022/12/13 11:34:23;;;;;;;68.10;22.90;;;;;;;;;;103381;1304;23303;-80
2022/12/13 11:36:50;;;;;;;38.90;14.50;;;;;;;;;;103543;1307;25173;-80
2022/12/13 11:39:16;;;;;;;26.00;11.90;;;;;;;;;;103555;1305;22464;-83
2022/12/13 11:42:13;;;;;;;21.30;9.70;;;;;;;;;;103506;1307;22517;-83
2022/12/13 11:44:42;;;;;;;11.90;4.60;;;;;;;;;;103432;1306;24305;-79
2022/12/13 11:47:13;;;;;;;10.10;3.60;;;;;;;;;;103573;1305;22673;-80
2022/12/13 11:49:41;;;;;;;10.80;4.00;;;;;;;;;;103374;1307;24425;-84
2022/12/13 11:52:11;;;;;;;9.80;3.90;;;;;;;;;;103518;1307;24505;-80
2022/12/13 11:54:58;;;;;;;10.60;3.70;;;;;;;;;;103517;1306;25374;-80
2022/12/13 11:57:38;;;;;;;11.70;3.90;;;;;;;;;;103515;1302;22484;-81
2022/12/13 12:00:26;;;;;;;16.20;4.90;;;;;;;;;;103418;1313;22466;-83
2022/12/13 12:02:57;;;;;;;10.60;4.00;;;;;;;;;;103515;1311;25317;-82
2022/12/13 12:05:27;;;;;;;63.30;18.40;;;;;;;;;;103365;1312;22474;-84
2022/12/13 12:07:56;;;;;;;207.30;50.60;;;;;;;;;;103418;1298;22721;-76
2022/12/13 12:10:29;;;;;;;167.60;41.90;;;;;;;;;;103495;1283;22470;-80
2022/12/13 12:13:00;;;;;;;55.90;16.50;;;;;;;;;;103603;1288;23930;-83
2022/12/13 12:15:29;;;;;;;69.30;20.10;;;;;;;;;;103335;1309;25371;-83
2022/12/13 12:17:56;;;;;;;43.60;14.30;;;;;;;;;;103492;1301;22469;-84
2022/12/13 12:20:28;;;;;;;22.70;8.00;;;;;;;;;;103547;1290;22840;-79
2022/12/13 12:22:55;;;;;;;20.90;7.30;;;;;;;;;;103398;1309;22546;-85
2022/12/13 12:25:26;;;;;;;20.20;7.60;;;;;;;;;;103564;1304;25325;-82
2022/12/13 12:28:08;;;;;;;24.10;8.40;;;;;;;;;;103444;1310;22474;-81
2022/12/13 12:30:35;;;;;;;23.10;11.30;;;;;;;;;;103647;1292;25365;-81
2022/12/13 12:33:21;;;;;;;24.90;12.60;;;;;;;;;;103436;1301;25359;-81
2022/12/13 12:35:47;;;;;;;18.70;6.90;;;;;;;;;;103622;1306;22466;-82
2022/12/13 12:38:29;;;;;;;22.40;9.40;;;;;;;;;;103559;1308;22698;-80
2022/12/13 12:41:12;;;;;;;21.10;7.80;;;;;;;;;;103513;1313;24240;-83
2022/12/13 12:43:40;;;;;;;29.50;9.60;;;;;;;;;;103620;1306;22464;-81
2022/12/13 12:46:10;;;;;;;54.60;18.00;;;;;;;;;;103463;1310;22549;-84
2022/12/13 12:48:43;;;;;;;21.40;8.10;;;;;;;;;;103531;1300;24301;-82
2022/12/13 12:51:19;;;;;;;45.90;14.90;;;;;;;;;;103487;1310;24237;-81
2022/12/13 12:53:58;;;;;;;22.70;8.90;;;;;;;;;;103659;1310;21763;-82
2022/12/13 12:56:41;;;;;;;41.70;12.30;;;;;;;;;;103609;1307;24655;-84
2022/12/13 12:59:17;;;;;;;38.10;12.70;;;;;;;;;;103502;1310;22480;-81
2022/12/13 13:01:59;;;;;;;22.70;8.20;;;;;;;;;;103566;1307;22475;-79
2022/12/13 13:04:30;;;;;;;28.60;11.10;;;;;;;;;;103455;1307;22475;-85
2022/12/13 13:07:12;;;;;;;32.40;12.20;;;;;;;;;;103319;1310;24328;-81
2022/12/13 13:09:39;;;;;;;22.50;8.80;;;;;;;;;;103312;1307;24327;-82
2022/12/13 13:12:08;;;;;;;20.10;8.00;;;;;;;;;;103878;1307;25357;-81
2022/12/13 13:14:36;;;;;;;32.20;11.80;;;;;;;;;;103433;1286;25262;-81
2022/12/13 13:17:14;;;;;;;27.10;11.40;;;;;;;;;;103604;1280;22474;-81
2022/12/13 13:19:41;;;;;;;25.00;10.70;;;;;;;;;;103674;1288;22438;-81
2022/12/13 13:22:29;;;;;;;23.30;9.80;;;;;;;;;;103584;1293;25575;-81
2022/12/13 13:25:05;;;;;;;20.10;9.00;;;;;;;;;;103556;1282;24336;-80
2022/12/13 13:27:34;;;;;;;16.20;6.60;;;;;;;;;;103575;1279;22510;-81
2022/12/13 13:30:06;;;;;;;19.60;8.80;;;;;;;;;;103729;1287;22709;-80
2022/12/13 13:32:35;;;;;;;21.50;9.10;;;;;;;;;;103655;1281;25329;-79
2022/12/13 13:35:22;;;;;;;23.00;9.40;;;;;;;;;;103460;1293;24227;-80
2022/12/13 13:37:49;;;;;;;34.30;13.20;;;;;;;;;;103606;1276;22490;-80
2022/12/13 13:40:27;;;;;;;41.20;13.90;;;;;;;;;;103616;1288;22463;-82
2022/12/13 13:43:10;;;;;;;29.60;10.00;;;;;;;;;;103501;1293;24328;-84
2022/12/13 13:45:56;;;;;;;30.80;11.00;;;;;;;;;;103691;1292;22908;-81
2022/12/13 13:48:23;;;;;;;36.60;12.10;;;;;;;;;;103464;1281;22485;-80
2022/12/13 13:51:13;;;;;;;26.60;9.80;;;;;;;;;;103519;1284;22462;-80
2022/12/13 13:53:52;;;;;;;22.90;9.30;;;;;;;;;;103669;1295;22467;-79
2022/12/13 13:56:39;;;;;;;37.00;12.60;;;;;;;;;;103573;1292;22451;-80
2022/12/13 13:59:28;;;;;;;37.10;12.00;;;;;;;;;;103556;1287;22472;-85
2022/12/13 14:01:55;;;;;;;33.60;11.20;;;;;;;;;;103354;1282;22936;-83
2022/12/13 14:04:43;;;;;;;33.50;11.80;;;;;;;;;;103517;1295;22476;-82
2022/12/13 14:07:33;;;;;;;51.60;16.20;;;;;;;;;;103521;1284;22465;-79
2022/12/13 14:10:04;;;;;;;64.80;19.20;;;;;;;;;;103451;1285;22591;-80
2022/12/13 14:12:32;;;;;;;44.90;14.90;;;;;;;;;;103478;1294;24192;-81
2022/12/13 14:15:18;;;;;;;49.60;16.80;;;;;;;;;;103699;1291;25370;-83
2022/12/13 14:18:01;;;;;;;49.90;16.20;;;;;;;;;;103418;1282;22458;-82
2022/12/13 14:20:47;;;;;;;45.50;17.10;;;;;;;;;;103223;1288;22582;-81
2022/12/13 14:23:27;;;;;;;35.00;13.80;;;;;;;;;;103404;1290;22626;-82
2022/12/13 14:26:01;;;;;;;29.90;12.10;;;;;;;;;;103350;1292;22572;-81
2022/12/13 14:28:45;;;;;;;22.60;10.00;;;;;;;;;;103269;1295;24423;-81
2022/12/13 14:31:14;;;;;;;28.70;10.60;;;;;;;;;;103215;1296;22510;-82
2022/12/13 14:33:43;;;;;;;32.20;11.40;;;;;;;;;;103342;1307;23972;-82
2022/12/13 14:36:13;;;;;;;32.30;13.60;;;;;;;;;;103514;1283;22560;-81
2022/12/13 14:38:40;;;;;;;29.10;11.80;;;;;;;;;;103290;1283;21767;-82
2022/12/13 14:41:18;;;;;;;29.60;13.30;;;;;;;;;;103366;1275;25412;-82
2022/12/13 14:43:48;;;;;;;41.30;14.50;;;;;;;;;;103358;1293;25378;-82